sensor_id;sensor_type;location;lat;lon;timestamp;P1;durP1;ratioP1;P2;durP2;ratioP2
36221;SDS011;22266;52.340;4.962;2023-04-28T00:00:00;9.00;;;9.00;;
36221;SDS011;22266;52.340;4.962;2023-04-28T00:02:30;8.50;;;7.75;;
36221;SDS011;22266;52.340;4.962;2023-04-28T00:04:57;11.00;;;11.00;;
36221;SDS011;22266;52.340;4.962;2023-04-28T00:07:23;9.25;;;8.75;;
36221;SDS011;22266;52.340;4.962;2023-04-28T00:09:50;9.00;;;6.50;;
36221;SDS011;22266;52.340;4.962;2023-04-28T00:12:16;11.00;;;8.00;;
36221;SDS011;22266;52.340;4.962;2023-04-28T00:14:43;8.50;;;6.75;;
36221;SDS011;22266;52.340;4.962;2023-04-28T00:17:09;6.00;;;6.00;;
36221;SDS011;22266;52.340;4.962;2023-04-28T00:19:36;6.00;;;5.75;;
36221;SDS011;22266;52.340;4.962;2023-04-28T00:22:03;10.00;;;10.00;;
36221;SDS011;22266;52.340;4.962;2023-04-28T00:24:31;7.50;;;7.50;;
36221;SDS011;22266;52.340;4.962;2023-04-28T00:26:58;7.00;;;6.50;;
36221;SDS011;22266;52.340;4.962;2023-04-28T00:29:27;9.75;;;7.25;;
36221;SDS011;22266;52.340;4.962;2023-04-28T00:31:54;9.50;;;8.50;;
36221;SDS011;22266;52.340;4.962;2023-04-28T00:34:21;11.50;;;9.25;;
36221;SDS011;22266;52.340;4.962;2023-04-28T00:36:48;8.25;;;5.00;;
36221;SDS011;22266;52.340;4.962;2023-04-28T00:39:15;9.00;;;5.50;;
36221;SDS011;22266;52.340;4.962;2023-04-28T00:41:43;9.75;;;8.00;;
36221;SDS011;22266;52.340;4.962;2023-04-28T00:44:09;7.75;;;6.00;;
36221;SDS011;22266;52.340;4.962;2023-04-28T00:46:39;8.25;;;8.25;;
36221;SDS011;22266;52.340;4.962;2023-04-28T00:49:07;7.50;;;6.00;;
36221;SDS011;22266;52.340;4.962;2023-04-28T00:51:34;8.50;;;8.50;;
36221;SDS011;22266;52.340;4.962;2023-04-28T00:54:01;4.75;;;4.75;;
36221;SDS011;22266;52.340;4.962;2023-04-28T00:56:28;12.50;;;7.50;;
36221;SDS011;22266;52.340;4.962;2023-04-28T00:58:56;6.00;;;6.00;;
36221;SDS011;22266;52.340;4.962;2023-04-28T01:01:23;5.50;;;5.50;;
36221;SDS011;22266;52.340;4.962;2023-04-28T01:03:50;8.75;;;7.50;;
36221;SDS011;22266;52.340;4.962;2023-04-28T01:06:17;8.25;;;6.25;;
36221;SDS011;22266;52.340;4.962;2023-04-28T01:08:48;8.25;;;7.75;;
36221;SDS011;22266;52.340;4.962;2023-04-28T01:11:16;10.75;;;8.50;;
36221;SDS011;22266;52.340;4.962;2023-04-28T01:14:01;8.00;;;7.00;;
36221;SDS011;22266;52.340;4.962;2023-04-28T01:16:33;8.00;;;6.00;;
36221;SDS011;22266;52.340;4.962;2023-04-28T01:19:01;6.00;;;6.00;;
36221;SDS011;22266;52.340;4.962;2023-04-28T01:21:32;9.25;;;8.00;;
36221;SDS011;22266;52.340;4.962;2023-04-28T01:24:12;7.50;;;7.50;;
36221;SDS011;22266;52.340;4.962;2023-04-28T01:26:39;8.25;;;8.25;;
36221;SDS011;22266;52.340;4.962;2023-04-28T01:29:06;8.00;;;8.00;;
36221;SDS011;22266;52.340;4.962;2023-04-28T01:31:32;5.50;;;5.25;;
36221;SDS011;22266;52.340;4.962;2023-04-28T01:33:59;7.50;;;4.75;;
36221;SDS011;22266;52.340;4.962;2023-04-28T01:36:26;5.00;;;5.00;;
36221;SDS011;22266;52.340;4.962;2023-04-28T01:38:54;6.50;;;6.50;;
36221;SDS011;22266;52.340;4.962;2023-04-28T01:41:20;6.25;;;6.25;;
36221;SDS011;22266;52.340;4.962;2023-04-28T01:43:47;8.00;;;8.00;;
36221;SDS011;22266;52.340;4.962;2023-04-28T01:46:14;10.00;;;8.25;;
36221;SDS011;22266;52.340;4.962;2023-04-28T01:48:40;9.00;;;7.00;;
36221;SDS011;22266;52.340;4.962;2023-04-28T01:51:07;6.25;;;6.25;;
36221;SDS011;22266;52.340;4.962;2023-04-28T01:53:37;10.00;;;10.00;;
36221;SDS011;22266;52.340;4.962;2023-04-28T01:56:03;9.00;;;8.00;;
36221;SDS011;22266;52.340;4.962;2023-04-28T01:58:30;6.00;;;6.00;;
36221;SDS011;22266;52.340;4.962;2023-04-28T02:00:57;9.75;;;6.75;;
36221;SDS011;22266;52.340;4.962;2023-04-28T02:03:24;8.00;;;8.00;;
36221;SDS011;22266;52.340;4.962;2023-04-28T02:05:50;5.00;;;5.00;;
36221;SDS011;22266;52.340;4.962;2023-04-28T02:08:17;6.50;;;6.50;;
36221;SDS011;22266;52.340;4.962;2023-04-28T02:10:44;11.00;;;10.00;;
36221;SDS011;22266;52.340;4.962;2023-04-28T02:13:10;9.00;;;6.25;;
36221;SDS011;22266;52.340;4.962;2023-04-28T02:15:40;9.00;;;9.00;;
36221;SDS011;22266;52.340;4.962;2023-04-28T02:18:08;11.25;;;7.50;;
36221;SDS011;22266;52.340;4.962;2023-04-28T02:20:38;9.50;;;6.00;;
36221;SDS011;22266;52.340;4.962;2023-04-28T02:23:06;9.00;;;8.75;;
36221;SDS011;22266;52.340;4.962;2023-04-28T02:25:33;10.25;;;7.50;;
36221;SDS011;22266;52.340;4.962;2023-04-28T02:27:59;9.00;;;7.75;;
36221;SDS011;22266;52.340;4.962;2023-04-28T02:30:26;6.25;;;6.25;;
36221;SDS011;22266;52.340;4.962;2023-04-28T02:32:54;10.75;;;7.50;;
36221;SDS011;22266;52.340;4.962;2023-04-28T02:35:21;7.50;;;5.50;;
36221;SDS011;22266;52.340;4.962;2023-04-28T02:37:47;10.00;;;9.25;;
36221;SDS011;22266;52.340;4.962;2023-04-28T02:40:14;7.50;;;7.00;;
36221;SDS011;22266;52.340;4.962;2023-04-28T02:42:40;7.75;;;7.75;;
36221;SDS011;22266;52.340;4.962;2023-04-28T02:45:07;10.00;;;9.25;;
36221;SDS011;22266;52.340;4.962;2023-04-28T02:47:33;9.00;;;9.00;;
36221;SDS011;22266;52.340;4.962;2023-04-28T02:50:00;11.75;;;8.75;;
36221;SDS011;22266;52.340;4.962;2023-04-28T02:52:27;11.50;;;8.00;;
36221;SDS011;22266;52.340;4.962;2023-04-28T02:54:53;8.75;;;8.75;;
36221;SDS011;22266;52.340;4.962;2023-04-28T02:57:23;11.50;;;10.00;;
36221;SDS011;22266;52.340;4.962;2023-04-28T02:59:50;7.00;;;7.00;;
36221;SDS011;22266;52.340;4.962;2023-04-28T03:02:16;8.25;;;8.25;;
36221;SDS011;22266;52.340;4.962;2023-04-28T03:04:43;8.25;;;7.00;;
36221;SDS011;22266;52.340;4.962;2023-04-28T03:07:09;10.00;;;8.25;;
36221;SDS011;22266;52.340;4.962;2023-04-28T03:09:36;11.25;;;9.25;;
36221;SDS011;22266;52.340;4.962;2023-04-28T03:12:02;8.75;;;8.75;;
36221;SDS011;22266;52.340;4.962;2023-04-28T03:14:31;6.50;;;6.25;;
36221;SDS011;22266;52.340;4.962;2023-04-28T03:16:57;14.75;;;13.25;;
36221;SDS011;22266;52.340;4.962;2023-04-28T03:19:24;8.00;;;7.50;;
36221;SDS011;22266;52.340;4.962;2023-04-28T03:21:51;8.50;;;6.00;;
36221;SDS011;22266;52.340;4.962;2023-04-28T03:24:18;12.50;;;11.00;;
36221;SDS011;22266;52.340;4.962;2023-04-28T03:26:44;8.50;;;7.00;;
36221;SDS011;22266;52.340;4.962;2023-04-28T03:29:11;9.75;;;9.75;;
36221;SDS011;22266;52.340;4.962;2023-04-28T03:31:37;11.75;;;8.25;;
36221;SDS011;22266;52.340;4.962;2023-04-28T03:34:04;12.25;;;8.50;;
36221;SDS011;22266;52.340;4.962;2023-04-28T03:36:30;10.50;;;9.50;;
36221;SDS011;22266;52.340;4.962;2023-04-28T03:39:05;13.25;;;10.00;;
36221;SDS011;22266;52.340;4.962;2023-04-28T03:41:32;7.50;;;7.50;;
36221;SDS011;22266;52.340;4.962;2023-04-28T03:44:17;11.00;;;9.00;;
36221;SDS011;22266;52.340;4.962;2023-04-28T03:46:46;11.00;;;10.50;;
36221;SDS011;22266;52.340;4.962;2023-04-28T03:49:13;10.25;;;10.25;;
36221;SDS011;22266;52.340;4.962;2023-04-28T03:51:40;11.50;;;10.50;;
36221;SDS011;22266;52.340;4.962;2023-04-28T03:54:08;10.25;;;10.25;;
36221;SDS011;22266;52.340;4.962;2023-04-28T03:56:34;6.50;;;6.50;;
36221;SDS011;22266;52.340;4.962;2023-04-28T03:59:02;11.75;;;10.00;;
36221;SDS011;22266;52.340;4.962;2023-04-28T04:01:29;16.75;;;13.50;;
36221;SDS011;22266;52.340;4.962;2023-04-28T04:03:55;9.00;;;9.00;;
36221;SDS011;22266;52.340;4.962;2023-04-28T04:06:22;12.75;;;10.50;;
36221;SDS011;22266;52.340;4.962;2023-04-28T04:08:49;14.75;;;10.50;;
36221;SDS011;22266;52.340;4.962;2023-04-28T04:11:16;14.75;;;13.25;;
36221;SDS011;22266;52.340;4.962;2023-04-28T04:13:42;10.00;;;8.75;;
36221;SDS011;22266;52.340;4.962;2023-04-28T04:16:13;11.50;;;8.50;;
36221;SDS011;22266;52.340;4.962;2023-04-28T04:18:41;9.50;;;9.50;;
36221;SDS011;22266;52.340;4.962;2023-04-28T04:21:16;9.00;;;6.25;;
36221;SDS011;22266;52.340;4.962;2023-04-28T04:23:44;8.75;;;8.00;;
36221;SDS011;22266;52.340;4.962;2023-04-28T04:26:11;11.75;;;11.00;;
36221;SDS011;22266;52.340;4.962;2023-04-28T04:28:38;12.00;;;11.00;;
36221;SDS011;22266;52.340;4.962;2023-04-28T04:31:06;10.25;;;9.50;;
36221;SDS011;22266;52.340;4.962;2023-04-28T04:33:34;9.50;;;9.25;;
36221;SDS011;22266;52.340;4.962;2023-04-28T04:36:00;9.25;;;9.25;;
36221;SDS011;22266;52.340;4.962;2023-04-28T04:38:28;10.50;;;9.00;;
36221;SDS011;22266;52.340;4.962;2023-04-28T04:40:55;11.50;;;11.50;;
36221;SDS011;22266;52.340;4.962;2023-04-28T04:43:22;4.50;;;4.00;;
36221;SDS011;22266;52.340;4.962;2023-04-28T04:45:49;7.75;;;7.75;;
36221;SDS011;22266;52.340;4.962;2023-04-28T04:48:16;9.00;;;7.25;;
36221;SDS011;22266;52.340;4.962;2023-04-28T04:50:44;6.25;;;5.00;;
36221;SDS011;22266;52.340;4.962;2023-04-28T04:53:11;11.50;;;11.00;;
36221;SDS011;22266;52.340;4.962;2023-04-28T04:55:42;16.25;;;12.50;;
36221;SDS011;22266;52.340;4.962;2023-04-28T04:58:09;8.25;;;6.50;;
36221;SDS011;22266;52.340;4.962;2023-04-28T05:00:44;6.00;;;6.00;;
36221;SDS011;22266;52.340;4.962;2023-04-28T05:03:11;13.00;;;8.75;;
36221;SDS011;22266;52.340;4.962;2023-04-28T05:05:39;8.75;;;7.50;;
36221;SDS011;22266;52.340;4.962;2023-04-28T05:08:11;6.75;;;6.75;;
36221;SDS011;22266;52.340;4.962;2023-04-28T05:10:39;6.75;;;6.00;;
36221;SDS011;22266;52.340;4.962;2023-04-28T05:13:05;11.00;;;8.50;;
36221;SDS011;22266;52.340;4.962;2023-04-28T05:15:32;12.00;;;9.25;;
36221;SDS011;22266;52.340;4.962;2023-04-28T05:18:17;11.00;;;7.75;;
36221;SDS011;22266;52.340;4.962;2023-04-28T05:20:44;10.50;;;10.25;;
36221;SDS011;22266;52.340;4.962;2023-04-28T05:23:11;12.25;;;10.50;;
36221;SDS011;22266;52.340;4.962;2023-04-28T05:25:38;14.50;;;8.25;;
36221;SDS011;22266;52.340;4.962;2023-04-28T05:28:06;8.00;;;8.00;;
36221;SDS011;22266;52.340;4.962;2023-04-28T05:30:34;9.50;;;9.00;;
36221;SDS011;22266;52.340;4.962;2023-04-28T05:33:01;10.75;;;10.75;;
36221;SDS011;22266;52.340;4.962;2023-04-28T05:35:28;16.25;;;14.00;;
36221;SDS011;22266;52.340;4.962;2023-04-28T05:37:56;11.75;;;10.50;;
36221;SDS011;22266;52.340;4.962;2023-04-28T05:40:24;13.00;;;11.00;;
36221;SDS011;22266;52.340;4.962;2023-04-28T05:42:51;14.25;;;10.75;;
36221;SDS011;22266;52.340;4.962;2023-04-28T05:45:18;14.50;;;14.00;;
36221;SDS011;22266;52.340;4.962;2023-04-28T05:47:45;14.00;;;13.25;;
36221;SDS011;22266;52.340;4.962;2023-04-28T05:50:12;17.00;;;16.75;;
36221;SDS011;22266;52.340;4.962;2023-04-28T05:52:38;10.00;;;8.50;;
36221;SDS011;22266;52.340;4.962;2023-04-28T05:55:07;13.00;;;13.00;;
36221;SDS011;22266;52.340;4.962;2023-04-28T05:57:34;7.75;;;6.75;;
36221;SDS011;22266;52.340;4.962;2023-04-28T06:00:17;11.75;;;11.75;;
36221;SDS011;22266;52.340;4.962;2023-04-28T06:02:44;11.75;;;11.00;;
36221;SDS011;22266;52.340;4.962;2023-04-28T06:05:11;10.25;;;8.25;;
36221;SDS011;22266;52.340;4.962;2023-04-28T06:07:39;10.50;;;10.25;;
36221;SDS011;22266;52.340;4.962;2023-04-28T06:10:06;11.50;;;10.00;;
36221;SDS011;22266;52.340;4.962;2023-04-28T06:12:34;9.00;;;9.00;;
36221;SDS011;22266;52.340;4.962;2023-04-28T06:15:02;10.00;;;9.00;;
36221;SDS011;22266;52.340;4.962;2023-04-28T06:17:29;13.00;;;8.75;;
36221;SDS011;22266;52.340;4.962;2023-04-28T06:19:58;9.25;;;9.25;;
36221;SDS011;22266;52.340;4.962;2023-04-28T06:22:24;12.00;;;10.50;;
36221;SDS011;22266;52.340;4.962;2023-04-28T06:24:51;12.75;;;9.75;;
36221;SDS011;22266;52.340;4.962;2023-04-28T06:27:25;10.00;;;10.00;;
36221;SDS011;22266;52.340;4.962;2023-04-28T06:29:51;10.00;;;10.00;;
36221;SDS011;22266;52.340;4.962;2023-04-28T06:32:18;9.50;;;9.00;;
36221;SDS011;22266;52.340;4.962;2023-04-28T06:34:44;12.75;;;10.75;;
36221;SDS011;22266;52.340;4.962;2023-04-28T06:37:12;12.00;;;11.00;;
36221;SDS011;22266;52.340;4.962;2023-04-28T06:39:39;9.75;;;9.75;;
36221;SDS011;22266;52.340;4.962;2023-04-28T06:42:06;13.25;;;11.00;;
36221;SDS011;22266;52.340;4.962;2023-04-28T06:44:35;11.25;;;9.00;;
36221;SDS011;22266;52.340;4.962;2023-04-28T06:47:02;12.75;;;12.00;;
36221;SDS011;22266;52.340;4.962;2023-04-28T06:49:28;14.25;;;11.25;;
36221;SDS011;22266;52.340;4.962;2023-04-28T06:51:58;12.50;;;12.50;;
36221;SDS011;22266;52.340;4.962;2023-04-28T06:54:28;13.75;;;12.25;;
36221;SDS011;22266;52.340;4.962;2023-04-28T06:56:54;13.00;;;10.00;;
36221;SDS011;22266;52.340;4.962;2023-04-28T06:59:22;16.25;;;15.00;;
36221;SDS011;22266;52.340;4.962;2023-04-28T07:01:49;15.00;;;13.25;;
36221;SDS011;22266;52.340;4.962;2023-04-28T07:04:15;19.75;;;14.75;;
36221;SDS011;22266;52.340;4.962;2023-04-28T07:06:42;14.75;;;13.75;;
36221;SDS011;22266;52.340;4.962;2023-04-28T07:09:09;17.50;;;11.50;;
36221;SDS011;22266;52.340;4.962;2023-04-28T07:11:36;20.00;;;18.25;;
36221;SDS011;22266;52.340;4.962;2023-04-28T07:14:02;19.25;;;16.00;;
36221;SDS011;22266;52.340;4.962;2023-04-28T07:16:33;21.00;;;17.50;;
36221;SDS011;22266;52.340;4.962;2023-04-28T07:19:01;23.00;;;16.00;;
36221;SDS011;22266;52.340;4.962;2023-04-28T07:21:27;14.25;;;14.00;;
36221;SDS011;22266;52.340;4.962;2023-04-28T07:23:54;20.50;;;19.25;;
36221;SDS011;22266;52.340;4.962;2023-04-28T07:26:22;14.25;;;13.25;;
36221;SDS011;22266;52.340;4.962;2023-04-28T07:28:49;22.25;;;19.25;;
36221;SDS011;22266;52.340;4.962;2023-04-28T07:31:15;19.25;;;13.00;;
36221;SDS011;22266;52.340;4.962;2023-04-28T07:33:42;20.75;;;16.50;;
36221;SDS011;22266;52.340;4.962;2023-04-28T07:36:08;16.25;;;14.50;;
36221;SDS011;22266;52.340;4.962;2023-04-28T07:38:35;17.50;;;15.75;;
36221;SDS011;22266;52.340;4.962;2023-04-28T07:41:02;20.50;;;18.50;;
36221;SDS011;22266;52.340;4.962;2023-04-28T07:43:29;17.50;;;14.50;;
36221;SDS011;22266;52.340;4.962;2023-04-28T07:45:56;21.00;;;17.25;;
36221;SDS011;22266;52.340;4.962;2023-04-28T07:48:23;13.75;;;13.75;;
36221;SDS011;22266;52.340;4.962;2023-04-28T07:50:49;26.25;;;17.75;;
36221;SDS011;22266;52.340;4.962;2023-04-28T07:53:16;15.50;;;14.25;;
36221;SDS011;22266;52.340;4.962;2023-04-28T07:55:43;18.50;;;17.50;;
36221;SDS011;22266;52.340;4.962;2023-04-28T07:58:11;14.50;;;12.25;;
36221;SDS011;22266;52.340;4.962;2023-04-28T08:00:38;16.50;;;15.00;;
36221;SDS011;22266;52.340;4.962;2023-04-28T08:03:06;22.50;;;16.50;;
36221;SDS011;22266;52.340;4.962;2023-04-28T08:05:33;20.50;;;16.50;;
36221;SDS011;22266;52.340;4.962;2023-04-28T08:07:59;14.75;;;13.50;;
36221;SDS011;22266;52.340;4.962;2023-04-28T08:10:26;17.25;;;17.00;;
36221;SDS011;22266;52.340;4.962;2023-04-28T08:12:53;17.00;;;16.75;;
36221;SDS011;22266;52.340;4.962;2023-04-28T08:15:20;16.50;;;16.50;;
36221;SDS011;22266;52.340;4.962;2023-04-28T08:17:46;16.00;;;16.00;;
36221;SDS011;22266;52.340;4.962;2023-04-28T08:20:13;16.25;;;13.75;;
36221;SDS011;22266;52.340;4.962;2023-04-28T08:22:46;19.25;;;18.00;;
36221;SDS011;22266;52.340;4.962;2023-04-28T08:25:13;25.25;;;21.00;;
36221;SDS011;22266;52.340;4.962;2023-04-28T08:27:39;21.25;;;17.00;;
36221;SDS011;22266;52.340;4.962;2023-04-28T08:30:06;22.75;;;19.75;;
36221;SDS011;22266;52.340;4.962;2023-04-28T08:32:34;21.50;;;16.25;;
36221;SDS011;22266;52.340;4.962;2023-04-28T08:35:01;17.75;;;17.50;;
36221;SDS011;22266;52.340;4.962;2023-04-28T08:37:27;17.25;;;15.75;;
36221;SDS011;22266;52.340;4.962;2023-04-28T08:39:53;18.50;;;16.75;;
36221;SDS011;22266;52.340;4.962;2023-04-28T08:42:28;19.75;;;18.25;;
36221;SDS011;22266;52.340;4.962;2023-04-28T08:44:55;15.75;;;15.50;;
36221;SDS011;22266;52.340;4.962;2023-04-28T08:47:35;24.75;;;22.25;;
36221;SDS011;22266;52.340;4.962;2023-04-28T08:50:04;25.50;;;20.00;;
36221;SDS011;22266;52.340;4.962;2023-04-28T08:52:33;14.75;;;14.75;;
36221;SDS011;22266;52.340;4.962;2023-04-28T08:55:02;21.75;;;18.25;;
36221;SDS011;22266;52.340;4.962;2023-04-28T08:57:44;18.25;;;18.25;;
36221;SDS011;22266;52.340;4.962;2023-04-28T09:00:14;21.50;;;20.25;;
36221;SDS011;22266;52.340;4.962;2023-04-28T09:02:40;26.75;;;24.25;;
36221;SDS011;22266;52.340;4.962;2023-04-28T09:05:11;25.50;;;21.50;;
36221;SDS011;22266;52.340;4.962;2023-04-28T09:07:39;26.75;;;25.00;;
36221;SDS011;22266;52.340;4.962;2023-04-28T09:10:19;21.75;;;20.50;;
36221;SDS011;22266;52.340;4.962;2023-04-28T09:12:49;25.00;;;22.00;;
36221;SDS011;22266;52.340;4.962;2023-04-28T09:15:30;29.50;;;23.25;;
36221;SDS011;22266;52.340;4.962;2023-04-28T09:18:00;28.00;;;26.25;;
36221;SDS011;22266;52.340;4.962;2023-04-28T09:20:28;21.75;;;20.00;;
36221;SDS011;22266;52.340;4.962;2023-04-28T09:23:12;27.00;;;24.00;;
36221;SDS011;22266;52.340;4.962;2023-04-28T09:25:56;26.75;;;26.00;;
36221;SDS011;22266;52.340;4.962;2023-04-28T09:28:24;28.50;;;23.50;;
36221;SDS011;22266;52.340;4.962;2023-04-28T09:30:51;26.50;;;22.75;;
36221;SDS011;22266;52.340;4.962;2023-04-28T09:33:17;20.75;;;19.75;;
36221;SDS011;22266;52.340;4.962;2023-04-28T09:35:44;20.50;;;19.25;;
36221;SDS011;22266;52.340;4.962;2023-04-28T09:38:12;28.25;;;24.50;;
36221;SDS011;22266;52.340;4.962;2023-04-28T09:40:52;27.00;;;25.50;;
36221;SDS011;22266;52.340;4.962;2023-04-28T09:43:29;26.50;;;22.50;;
36221;SDS011;22266;52.340;4.962;2023-04-28T09:46:03;23.50;;;22.50;;
36221;SDS011;22266;52.340;4.962;2023-04-28T09:48:34;30.75;;;27.25;;
36221;SDS011;22266;52.340;4.962;2023-04-28T09:51:04;24.00;;;23.25;;
36221;SDS011;22266;52.340;4.962;2023-04-28T09:53:32;23.75;;;23.75;;
36221;SDS011;22266;52.340;4.962;2023-04-28T09:56:01;26.50;;;23.75;;
36221;SDS011;22266;52.340;4.962;2023-04-28T09:58:30;29.00;;;26.50;;
36221;SDS011;22266;52.340;4.962;2023-04-28T10:00:58;28.00;;;27.50;;
36221;SDS011;22266;52.340;4.962;2023-04-28T10:03:27;27.75;;;25.25;;
36221;SDS011;22266;52.340;4.962;2023-04-28T10:05:56;33.00;;;30.50;;
36221;SDS011;22266;52.340;4.962;2023-04-28T10:08:24;28.25;;;25.75;;
36221;SDS011;22266;52.340;4.962;2023-04-28T10:10:52;23.25;;;19.75;;
36221;SDS011;22266;52.340;4.962;2023-04-28T10:13:20;21.25;;;21.25;;
36221;SDS011;22266;52.340;4.962;2023-04-28T10:15:48;31.75;;;27.75;;
36221;SDS011;22266;52.340;4.962;2023-04-28T10:18:16;26.75;;;25.50;;
36221;SDS011;22266;52.340;4.962;2023-04-28T10:20:43;27.00;;;25.50;;
36221;SDS011;22266;52.340;4.962;2023-04-28T10:25:47;19.00;;;18.00;;
36221;SDS011;22266;52.340;4.962;2023-04-28T10:28:18;25.50;;;24.25;;
36221;SDS011;22266;52.340;4.962;2023-04-28T10:31:07;25.50;;;23.00;;
36221;SDS011;22266;52.340;4.962;2023-04-28T10:33:39;27.25;;;23.75;;
36221;SDS011;22266;52.340;4.962;2023-04-28T10:36:06;21.75;;;21.00;;
36221;SDS011;22266;52.340;4.962;2023-04-28T10:38:34;29.25;;;26.25;;
36221;SDS011;22266;52.340;4.962;2023-04-28T10:41:01;27.75;;;23.50;;
36221;SDS011;22266;52.340;4.962;2023-04-28T10:56:11;27.00;;;22.00;;
36221;SDS011;22266;52.340;4.962;2023-04-28T10:58:38;27.50;;;25.25;;
36221;SDS011;22266;52.340;4.962;2023-04-28T11:06:27;38.75;;;34.50;;
36221;SDS011;22266;52.340;4.962;2023-04-28T11:16:58;29.50;;;29.50;;
36221;SDS011;22266;52.340;4.962;2023-04-28T11:19:27;35.00;;;31.75;;
36221;SDS011;22266;52.340;4.962;2023-04-28T11:21:55;40.00;;;33.75;;
36221;SDS011;22266;52.340;4.962;2023-04-28T11:24:23;33.50;;;32.00;;
36221;SDS011;22266;52.340;4.962;2023-04-28T11:26:56;43.75;;;35.75;;
36221;SDS011;22266;52.340;4.962;2023-04-28T11:29:34;44.25;;;38.25;;
36221;SDS011;22266;52.340;4.962;2023-04-28T11:32:04;54.25;;;45.00;;
36221;SDS011;22266;52.340;4.962;2023-04-28T11:34:32;38.50;;;37.00;;
36221;SDS011;22266;52.340;4.962;2023-04-28T11:36:59;52.25;;;44.00;;
36221;SDS011;22266;52.340;4.962;2023-04-28T11:39:27;48.25;;;40.00;;
36221;SDS011;22266;52.340;4.962;2023-04-28T11:41:58;36.75;;;34.75;;
36221;SDS011;22266;52.340;4.962;2023-04-28T11:44:28;43.25;;;38.25;;
36221;SDS011;22266;52.340;4.962;2023-04-28T11:46:56;41.75;;;36.25;;
36221;SDS011;22266;52.340;4.962;2023-04-28T11:49:29;32.25;;;29.00;;
36221;SDS011;22266;52.340;4.962;2023-04-28T11:52:04;33.50;;;31.00;;
36221;SDS011;22266;52.340;4.962;2023-04-28T11:54:33;41.50;;;32.25;;
36221;SDS011;22266;52.340;4.962;2023-04-28T11:57:00;34.50;;;28.75;;
36221;SDS011;22266;52.340;4.962;2023-04-28T11:59:30;27.50;;;27.25;;
36221;SDS011;22266;52.340;4.962;2023-04-28T12:02:08;23.50;;;21.25;;
36221;SDS011;22266;52.340;4.962;2023-04-28T12:04:35;21.75;;;18.50;;
36221;SDS011;22266;52.340;4.962;2023-04-28T12:07:04;18.50;;;14.50;;
36221;SDS011;22266;52.340;4.962;2023-04-28T12:09:31;14.50;;;14.00;;
36221;SDS011;22266;52.340;4.962;2023-04-28T12:12:00;13.50;;;10.00;;
36221;SDS011;22266;52.340;4.962;2023-04-28T12:14:28;10.00;;;10.00;;
36221;SDS011;22266;52.340;4.962;2023-04-28T12:16:57;14.50;;;11.00;;
36221;SDS011;22266;52.340;4.962;2023-04-28T12:19:24;9.25;;;8.00;;
36221;SDS011;22266;52.340;4.962;2023-04-28T12:25:01;13.25;;;9.50;;
36221;SDS011;22266;52.340;4.962;2023-04-28T12:27:34;8.25;;;7.50;;
36221;SDS011;22266;52.340;4.962;2023-04-28T12:32:46;9.25;;;7.75;;
36221;SDS011;22266;52.340;4.962;2023-04-28T12:35:13;8.50;;;8.50;;
36221;SDS011;22266;52.340;4.962;2023-04-28T12:37:43;8.25;;;7.50;;
36221;SDS011;22266;52.340;4.962;2023-04-28T12:40:10;6.50;;;5.75;;
36221;SDS011;22266;52.340;4.962;2023-04-28T12:42:36;6.75;;;5.50;;
36221;SDS011;22266;52.340;4.962;2023-04-28T12:45:03;7.00;;;6.00;;
36221;SDS011;22266;52.340;4.962;2023-04-28T12:47:31;6.25;;;3.50;;
36221;SDS011;22266;52.340;4.962;2023-04-28T12:49:57;5.25;;;5.25;;
36221;SDS011;22266;52.340;4.962;2023-04-28T12:52:23;5.00;;;5.00;;
36221;SDS011;22266;52.340;4.962;2023-04-28T12:54:50;4.00;;;4.00;;
36221;SDS011;22266;52.340;4.962;2023-04-28T12:57:17;3.00;;;2.00;;
36221;SDS011;22266;52.340;4.962;2023-04-28T12:59:45;2.00;;;1.00;;
36221;SDS011;22266;52.340;4.962;2023-04-28T13:02:13;1.50;;;1.25;;
36221;SDS011;22266;52.340;4.962;2023-04-28T13:04:40;1.50;;;1.50;;
36221;SDS011;22266;52.340;4.962;2023-04-28T13:07:08;6.75;;;5.00;;
36221;SDS011;22266;52.340;4.962;2023-04-28T13:09:34;1.00;;;1.00;;
36221;SDS011;22266;52.340;4.962;2023-04-28T13:12:03;5.00;;;5.00;;
36221;SDS011;22266;52.340;4.962;2023-04-28T13:14:30;6.50;;;6.50;;
36221;SDS011;22266;52.340;4.962;2023-04-28T13:16:57;11.50;;;8.75;;
36221;SDS011;22266;52.340;4.962;2023-04-28T13:19:24;11.50;;;10.00;;
36221;SDS011;22266;52.340;4.962;2023-04-28T13:21:50;11.50;;;11.00;;
36221;SDS011;22266;52.340;4.962;2023-04-28T13:24:17;14.75;;;14.00;;
36221;SDS011;22266;52.340;4.962;2023-04-28T13:26:44;12.75;;;12.00;;
36221;SDS011;22266;52.340;4.962;2023-04-28T13:29:10;12.75;;;11.50;;
36221;SDS011;22266;52.340;4.962;2023-04-28T13:31:37;12.00;;;10.50;;
36221;SDS011;22266;52.340;4.962;2023-04-28T13:34:03;15.50;;;15.25;;
36221;SDS011;22266;52.340;4.962;2023-04-28T13:36:31;17.00;;;11.75;;
36221;SDS011;22266;52.340;4.962;2023-04-28T13:38:58;18.25;;;13.75;;
36221;SDS011;22266;52.340;4.962;2023-04-28T13:41:27;11.00;;;9.00;;
36221;SDS011;22266;52.340;4.962;2023-04-28T13:43:53;18.00;;;15.00;;
36221;SDS011;22266;52.340;4.962;2023-04-28T13:46:20;14.75;;;11.25;;
36221;SDS011;22266;52.340;4.962;2023-04-28T13:48:47;14.00;;;13.00;;
36221;SDS011;22266;52.340;4.962;2023-04-28T13:51:13;14.75;;;14.25;;
36221;SDS011;22266;52.340;4.962;2023-04-28T13:53:40;18.75;;;16.00;;
36221;SDS011;22266;52.340;4.962;2023-04-28T13:56:06;21.00;;;19.25;;
36221;SDS011;22266;52.340;4.962;2023-04-28T13:58:33;16.25;;;16.25;;
36221;SDS011;22266;52.340;4.962;2023-04-28T14:01:00;18.75;;;16.50;;
36221;SDS011;22266;52.340;4.962;2023-04-28T14:03:26;20.25;;;17.50;;
36221;SDS011;22266;52.340;4.962;2023-04-28T14:05:54;21.75;;;17.75;;
36221;SDS011;22266;52.340;4.962;2023-04-28T14:08:22;24.50;;;21.50;;
36221;SDS011;22266;52.340;4.962;2023-04-28T14:10:52;16.50;;;16.50;;
36221;SDS011;22266;52.340;4.962;2023-04-28T14:13:19;16.75;;;15.75;;
36221;SDS011;22266;52.340;4.962;2023-04-28T14:15:46;16.75;;;16.75;;
36221;SDS011;22266;52.340;4.962;2023-04-28T14:18:24;23.25;;;22.00;;
36221;SDS011;22266;52.340;4.962;2023-04-28T14:20:50;23.50;;;21.00;;
36221;SDS011;22266;52.340;4.962;2023-04-28T14:23:17;17.75;;;17.25;;
36221;SDS011;22266;52.340;4.962;2023-04-28T14:25:43;17.75;;;16.00;;
36221;SDS011;22266;52.340;4.962;2023-04-28T14:28:10;15.75;;;14.00;;
36221;SDS011;22266;52.340;4.962;2023-04-28T14:30:36;14.00;;;11.75;;
36221;SDS011;22266;52.340;4.962;2023-04-28T14:33:03;11.25;;;11.25;;
36221;SDS011;22266;52.340;4.962;2023-04-28T14:35:29;19.00;;;17.00;;
36221;SDS011;22266;52.340;4.962;2023-04-28T14:37:56;26.25;;;15.75;;
36221;SDS011;22266;52.340;4.962;2023-04-28T14:40:23;16.25;;;12.50;;
36221;SDS011;22266;52.340;4.962;2023-04-28T14:42:50;19.25;;;17.50;;
36221;SDS011;22266;52.340;4.962;2023-04-28T14:45:18;20.75;;;15.50;;
36221;SDS011;22266;52.340;4.962;2023-04-28T14:47:44;21.00;;;18.00;;
36221;SDS011;22266;52.340;4.962;2023-04-28T14:50:11;18.75;;;15.00;;
36221;SDS011;22266;52.340;4.962;2023-04-28T14:52:39;18.75;;;17.00;;
36221;SDS011;22266;52.340;4.962;2023-04-28T14:55:06;16.75;;;15.00;;
36221;SDS011;22266;52.340;4.962;2023-04-28T14:57:33;23.50;;;17.00;;
36221;SDS011;22266;52.340;4.962;2023-04-28T15:00:00;30.00;;;23.75;;
36221;SDS011;22266;52.340;4.962;2023-04-28T15:02:27;19.75;;;16.25;;
36221;SDS011;22266;52.340;4.962;2023-04-28T15:04:55;13.25;;;12.75;;
36221;SDS011;22266;52.340;4.962;2023-04-28T15:07:22;16.00;;;16.00;;
36221;SDS011;22266;52.340;4.962;2023-04-28T15:09:53;18.75;;;16.00;;